Tributaries of Elbe river

river Ploučnice - water gauge Benešov nad Ploučnicí

Date and time (UTC) H (cm) Q (m3/s)
29. 9. 2020 09:10 79 4.2
29. 9. 2020 09:00 79 4
29. 9. 2020 08:00 79 4
29. 9. 2020 07:00 79 4
29. 9. 2020 06:00 80 5
29. 9. 2020 05:00 79 4
29. 9. 2020 04:00 80 5
29. 9. 2020 03:00 80 5
29. 9. 2020 02:00 80 5
29. 9. 2020 01:00 80 5
29. 9. 2020 00:00 81 5
28. 9. 2020 23:00 80 5
28. 9. 2020 22:00 81 5
28. 9. 2020 21:00 81 5

H - water level, Q - discharge

river Ohře - water gauge Louny

Date and time (UTC) H (cm) Q (m3/s)
29. 9. 2020 09:10 192 18.6
29. 9. 2020 09:00 192 19
29. 9. 2020 08:00 192 19
29. 9. 2020 07:00 192 19
29. 9. 2020 06:00 192 19
29. 9. 2020 05:00 192 19
29. 9. 2020 04:00 192 19
29. 9. 2020 03:00 192 19
29. 9. 2020 02:00 192 19
29. 9. 2020 01:00 192 19
29. 9. 2020 00:00 192 19
28. 9. 2020 23:00 192 19
28. 9. 2020 22:00 192 19
28. 9. 2020 21:00 192 19

H - water level, Q - discharge

Vraňany

Date and time (UTC) H (cm) Q (m3/s)
29. 9. 2020 09:20 28 69.2
29. 9. 2020 09:00 32 73
29. 9. 2020 08:00 35 76
29. 9. 2020 07:00 35 76
29. 9. 2020 06:00 34 75
29. 9. 2020 05:00 34 75
29. 9. 2020 04:00 36 77
29. 9. 2020 03:00 31 72
29. 9. 2020 02:00 29 70
29. 9. 2020 01:00 39 80
29. 9. 2020 00:00 39 80
28. 9. 2020 23:00 38 79
28. 9. 2020 22:00 40 81
28. 9. 2020 21:00 42 84

H - water level, Q - discharge

river Jizera - water gauge Předměřice

Date and time (UTC) H (cm) Q (m3/s)
29. 9. 2020 09:10 126 9.1
29. 9. 2020 09:00 126 9
29. 9. 2020 08:00 121 8
29. 9. 2020 07:00 131 11
29. 9. 2020 06:00 134 11
29. 9. 2020 05:00 125 9
29. 9. 2020 04:00 123 8
29. 9. 2020 03:00 124 9
29. 9. 2020 02:00 130 10
29. 9. 2020 01:00 129 10
29. 9. 2020 00:00 127 9
28. 9. 2020 23:00 123 8
28. 9. 2020 22:00 121 8
28. 9. 2020 21:00 117 7

H - water level, Q - discharge

river Cidlina - water gauge Sány

Date and time (UTC) H (cm) Q (m3/s)
29. 9. 2020 09:10 49 3
29. 9. 2020 09:00 48 3
29. 9. 2020 08:00 48 3
29. 9. 2020 07:00 49 3
29. 9. 2020 06:00 49 3
29. 9. 2020 05:00 50 3
29. 9. 2020 04:00 50 3
29. 9. 2020 03:00 50 3
29. 9. 2020 02:00 51 3
29. 9. 2020 01:00 51 3
29. 9. 2020 00:00 51 3
28. 9. 2020 23:00 52 3
28. 9. 2020 22:00 52 3
28. 9. 2020 21:00 52 3

H - water level, Q - discharge

river Orlice - water gauge Týniště nad Orlicí

Date and time (UTC) H (cm) Q (m3/s)
29. 9. 2020 09:00 95 12.6
29. 9. 2020 08:00 95 13
29. 9. 2020 07:00 97 13
29. 9. 2020 06:00 98 13
29. 9. 2020 05:00 98 13
29. 9. 2020 04:00 98 13
29. 9. 2020 03:00 96 13
29. 9. 2020 02:00 96 13
29. 9. 2020 01:00 95 13
29. 9. 2020 00:00 95 13
28. 9. 2020 23:00 96 13
28. 9. 2020 22:00 97 13
28. 9. 2020 21:00 99 13

H - water level, Q - discharge
Source data
Labe Basin Vltava Basin Povodí Moravy ČHMÚ